CheckWX is a tool to help pilots better visualize weather data.  It is not intended as a substitute for an official pre-flight weather briefing.

19:55:48 UTC

EKSP METAR
Vojens Skrydstrup Airport
Vojens, Denmark
Current

36 mins ago

EKSP 261920Z 23008KT 4000 -RA FEW002 BKN007 13/12 Q1002
Observed
May-26 @ 19:20 UTC
Wind
  • 230° at 8 KTS
Visibility
4,007 meters
Flight Rules
IFR
Conditions
Light Rain
Cloud Levels
  • Few at 200' AGL
  • Broken at 700' AGL
Temperature
13°C / 55°F
Dewpoint
12°C / 54°F
Humidity
94%
Altimeter
29.59" Hg
Pressure
1001.92 hPa
Previous

1 hour ago

EKSP 261850Z 24010KT 1500 R10/1800U R28/1400U -RA OVC003 13/12 Q1003
Observed
May-26 @ 18:50 UTC
Wind
  • 240° at 10 KTS
Visibility
1,497 meters
Flight Rules
LIFR
Conditions
Light Rain
Cloud Levels
  • Overcast at 300' AGL
Temperature
13°C / 55°F
Dewpoint
12°C / 54°F
Humidity
94%
Altimeter
29.62" Hg
Pressure
1002.92 hPa
Previous

1 hour ago

EKSP 261839Z 24010KT 1500 R10/1900D R28/1700D -RA OVC003 13/12 Q1003
Observed
May-26 @ 18:39 UTC
Wind
  • 240° at 10 KTS
Visibility
1,497 meters
Flight Rules
LIFR
Conditions
Light Rain
Cloud Levels
  • Overcast at 300' AGL
Temperature
13°C / 55°F
Dewpoint
12°C / 54°F
Humidity
94%
Altimeter
29.62" Hg
Pressure
1002.92 hPa